Chicago, Illinois
Traffic Map
Current Weather Conditions
Chicago, Illinois
Overcast
Overcast

Feels Like: 1°
Wind Chill: Ceiling: 2600
Heat Index: Visibility: 10mi
Dew Point: -5° Wind: 0mph
Humidity: 64% Direction: ° ()
Pressure: 30.28in Gusts: 0mph
Raw Report DataKMDW 200053Z 00000KT 10SM OVC026 01/M05 A3028 RMK AO2 SLP267 T00111050
Traffic Incident Summary
Active as of:
Severity:
Category:
InformationThere was an issue retrieving the traffic information for this location. Please try a different location or try again shortly.
Advertisements
Track Severe Weather on mobile